Météo Nord-Pas-de-Calais   La météo au plus près de chez vous

Observations météo à Mont Aigoual (30339)

Dimanche 3 Mai 2026


Température maximale

5.5°C

à 19:00

06h 06h UTC

Température minimale

3.5°C

à 23:24

18h 18h UTC

Rafale maximale

87 km/h

à 10:00

00h 00h UTC

Précipitations

0.4 mm

06h 06h UTC

  Relevés météo

Afficher les données infra-horaire (6 mins)

Température
Point de rosée
Humidité
Vent
Précipitations
Visibilité
Heure Température
°C
Point de rosée
°C
Humidité
%
Vent
moyen (raf.), km/h
Précipitations
mm
Visibilité
m
20:30 4.5 °C 4.5 °C 100 %45 km/h (76 km/h) 0 mm0 mm 50 m
20:24 4.5 °C 4.5 °C 100 %49 km/h (76 km/h) 0 mm0 mm 50 m
20:18 4.7 °C 4.7 °C 100 %51 km/h (75 km/h) 0 mm0 mm 40 m
20:12 4.8 °C 4.8 °C 100 %48 km/h (71 km/h) 0 mm0 mm 40 m
20:06 4.6 °C 4.6 °C 100 %48 km/h (71 km/h) 0 mm0 mm 60 m
20:00 4.7 °C 4.7 °C 100 %48 km/h (64 km/h) 0 mm0 mm 50 m
19:54 4.8 °C 4.8 °C 100 %46 km/h (65 km/h) 0 mm0 mm 50 m
19:48 4.8 °C 4.8 °C 100 %50 km/h (70 km/h) 0 mm0 mm 50 m
19:42 4.8 °C 4.8 °C 100 %49 km/h (75 km/h) 0 mm0 mm 50 m
19:36 4.7 °C 4.7 °C 100 %48 km/h (77 km/h) 0 mm0 mm 80 m
19:30 4.4 °C 4.4 °C 100 %45 km/h (77 km/h) 0 mm0 mm 130 m
19:24 4.6 °C 4.6 °C 100 %48 km/h (74 km/h) 0 mm0 mm 80 m
19:18 4.7 °C 4.7 °C 100 %49 km/h (74 km/h) 0 mm0 mm 60 m
19:12 5.2 °C 5.2 °C 100 %45 km/h (69 km/h) 0 mm0 mm 50 m
19:06 5.2 °C 5.2 °C 100 %46 km/h (73 km/h) 0 mm0 mm 60 m
19:00 5.2 °C 5.2 °C 100 %46 km/h (73 km/h) 0 mm0 mm 60 m
18:54 5.1 °C 5.1 °C 100 %49 km/h (84 km/h) 0 mm0 mm 70 m
18:48 5.1 °C 5.1 °C 100 %48 km/h (80 km/h) 0 mm0 mm 170 m
18:42 5.1 °C 5.1 °C 100 %49 km/h (80 km/h) 0 mm0 mm 190 m
18:36 5.1 °C 5.1 °C 100 %53 km/h (78 km/h) 0 mm0 mm 150 m
18:30 5.2 °C 5.2 °C 100 %55 km/h (82 km/h) 0 mm0 mm 120 m
18:24 5.2 °C 5.2 °C 100 %53 km/h (82 km/h) 0 mm0 mm 190 m
18:18 5.3 °C 5.3 °C 100 %50 km/h (85 km/h) 0 mm0 mm 150 m
18:12 5.4 °C 5.4 °C 100 %45 km/h (64 km/h) 0 mm0 mm 100 m
18:06 5.3 °C 5.3 °C 100 %47 km/h (69 km/h) 0 mm0 mm 110 m
18:00 5.4 °C 5.4 °C 100 %49 km/h (69 km/h) 0 mm0 mm 120 m
17:54 5.3 °C 5.3 °C 100 %50 km/h (69 km/h) 0 mm0 mm 370 m
17:48 5.3 °C 5.3 °C 100 %47 km/h (69 km/h) 0 mm0 mm 18870 m
17:42 5.2 °C 5.2 °C 100 %46 km/h (69 km/h) 0 mm0 mm 19540 m
17:36 5.2 °C 5.2 °C 100 %47 km/h (67 km/h) 0 mm0 mm 19760 m
17:30 5.2 °C 5.2 °C 100 %48 km/h (69 km/h) 0 mm0 mm 11570 m
17:24 5.1 °C 5.1 °C 100 %45 km/h (69 km/h) 0 mm0 mm 530 m
17:18 5.1 °C 5.1 °C 100 %41 km/h (63 km/h) 0 mm0 mm 160 m
17:12 5.2 °C 5.2 °C 100 %42 km/h (64 km/h) 0 mm0 mm 110 m
17:06 5.3 °C 5.3 °C 100 %44 km/h (64 km/h) 0 mm0 mm 80 m
17:00 5.2 °C 5.2 °C 100 %46 km/h (72 km/h) 0 mm0 mm 70 m
16:54 5.2 °C 5.2 °C 100 %45 km/h (72 km/h) 0 mm0 mm 60 m
16:48 5.2 °C 5.2 °C 100 %39 km/h (60 km/h) 0 mm0 mm 60 m
16:42 5.1 °C 5.1 °C 100 %40 km/h (62 km/h) 0 mm0 mm 70 m
16:36 4.9 °C 4.9 °C 100 %42 km/h (62 km/h) 0 mm0 mm 60 m
16:30 4.9 °C 4.9 °C 100 %40 km/h (68 km/h) 0 mm0 mm 70 m
16:24 4.8 °C 4.8 °C 100 %42 km/h (60 km/h) 0 mm0 mm 80 m
16:18 4.9 °C 4.9 °C 100 %47 km/h (64 km/h) 0 mm0 mm 60 m
16:12 5.1 °C 5.1 °C 100 %46 km/h (64 km/h) 0 mm0 mm 40 m
16:06 5.2 °C 5.2 °C 100 %43 km/h (63 km/h) 0 mm0 mm 40 m
16:00 5.1 °C 5.1 °C 100 %46 km/h (67 km/h) 0 mm0 mm 50 m
15:54 5.1 °C 5.1 °C 100 %45 km/h (63 km/h) 0 mm0 mm 60 m
15:48 5.2 °C 5.2 °C 100 %45 km/h (61 km/h) 0 mm0 mm 60 m
15:42 5 °C 5 °C 100 %46 km/h (61 km/h) 0 mm0 mm 60 m
15:36 4.8 °C 4.8 °C 100 %44 km/h (67 km/h) 0 mm0 mm 80 m
15:30 4.7 °C 4.7 °C 100 %45 km/h (67 km/h) 0 mm0 mm 130 m
15:24 4.6 °C 4.6 °C 100 %46 km/h (63 km/h) 0 mm0 mm 250 m
15:18 4.7 °C 4.7 °C 100 %44 km/h (63 km/h) 0 mm0 mm 100 m
15:12 4.7 °C 4.7 °C 100 %44 km/h (66 km/h) 0 mm0 mm 80 m
15:06 4.6 °C 4.6 °C 100 %49 km/h (71 km/h) 0 mm0 mm 110 m
15:00 4.5 °C 4.5 °C 100 %49 km/h (71 km/h) 0 mm0 mm 210 m
14:54 4.4 °C 4.4 °C 100 %49 km/h (67 km/h) 0 mm0 mm 500 m
14:48 4.5 °C 4.5 °C 100 %46 km/h (67 km/h) 0 mm0 mm 590 m
14:42 4.5 °C 4.5 °C 100 %46 km/h (63 km/h) 0 mm0 mm 100 m
14:36 4.7 °C 4.7 °C 100 %46 km/h (65 km/h) 0 mm0 mm 60 m
14:30 4.8 °C 4.8 °C 100 %47 km/h (65 km/h) 0 mm0 mm 50 m
14:24 4.8 °C 4.8 °C 100 %46 km/h (65 km/h) 0 mm0 mm 50 m
14:18 4.7 °C 4.7 °C 100 %45 km/h (68 km/h) 0 mm0 mm 100 m
14:12 4.6 °C 4.6 °C 100 %42 km/h (62 km/h) 0 mm0 mm 90 m
14:06 4.7 °C 4.7 °C 100 %46 km/h (68 km/h) 0 mm0 mm 50 m
14:00 4.8 °C 4.8 °C 100 %48 km/h (67 km/h) 0 mm0.2 mm 60 m
13:54 4.7 °C 4.7 °C 100 %51 km/h (72 km/h) 0 mm0 mm 120 m
13:48 4.6 °C 4.6 °C 100 %50 km/h (73 km/h) 0 mm0 mm 180 m
13:42 4.6 °C 4.6 °C 100 %49 km/h (68 km/h) 0 mm0 mm 80 m
13:36 4.5 °C 4.5 °C 100 %46 km/h (69 km/h) 0 mm0 mm 80 m
13:30 4.4 °C 4.4 °C 100 %48 km/h (67 km/h) 0 mm0 mm 120 m
13:24 4.6 °C 4.6 °C 100 %48 km/h (74 km/h) 0 mm0 mm 70 m
13:18 4.6 °C 4.6 °C 100 %49 km/h (75 km/h) 0 mm0 mm 50 m
13:12 4.8 °C 4.8 °C 100 %49 km/h (76 km/h) 0 mm0 mm 50 m
13:06 4.7 °C 4.7 °C 100 %50 km/h (83 km/h) 0.2 mm0 mm 50 m
13:00 4.7 °C 4.7 °C 100 %44 km/h (83 km/h) 0 mm0 mm 40 m
12:54 4.7 °C 4.7 °C 100 %42 km/h (77 km/h) 0 mm0 mm 40 m
12:48 4.7 °C 4.7 °C 100 %44 km/h (77 km/h) 0 mm0 mm 40 m
12:42 4.7 °C 4.7 °C 100 %44 km/h (80 km/h) 0 mm0 mm 40 m
12:36 4.9 °C 4.9 °C 100 %44 km/h (80 km/h) 0 mm0 mm 40 m
12:30 4.8 °C 4.8 °C 100 %49 km/h (74 km/h) 0 mm0 mm 50 m
12:24 4.9 °C 4.9 °C 100 %46 km/h (72 km/h) 0 mm0 mm 40 m
12:18 4.9 °C 4.9 °C 100 %45 km/h (72 km/h) 0 mm0 mm 40 m
12:12 4.9 °C 4.9 °C 100 %43 km/h (72 km/h) 0 mm0 mm 50 m
12:06 4.9 °C 4.9 °C 100 %44 km/h (72 km/h) 0 mm0 mm 50 m
12:00 4.9 °C 4.9 °C 100 %48 km/h (72 km/h) 0 mm0 mm 50 m
11:54 4.9 °C 4.9 °C 100 %49 km/h (70 km/h) 0 mm0 mm 50 m
11:48 4.8 °C 4.8 °C 100 %45 km/h (78 km/h) 0 mm0 mm 50 m
11:42 4.6 °C 4.6 °C 100 %46 km/h (75 km/h) 0 mm0 mm 50 m
11:36 4.7 °C 4.7 °C 100 %47 km/h (75 km/h) 0 mm0 mm 50 m
11:30 4.7 °C 4.7 °C 100 %50 km/h (78 km/h) 0 mm0 mm 50 m
11:24 4.7 °C 4.7 °C 100 %55 km/h (86 km/h) 0 mm0 mm 60 m
11:18 4.6 °C 4.6 °C 100 %51 km/h (69 km/h) 0 mm0 mm 60 m
11:12 4.6 °C 4.6 °C 100 %52 km/h (78 km/h) 0 mm0 mm 70 m
11:06 4.6 °C 4.6 °C 100 %49 km/h (77 km/h) 0 mm0 mm 60 m
11:00 4.7 °C 4.7 °C 100 %46 km/h (64 km/h) 0 mm0 mm 50 m
10:54 4.8 °C 4.8 °C 100 %44 km/h (72 km/h) 0 mm0 mm 50 m
10:48 4.8 °C 4.8 °C 100 %42 km/h (57 km/h) 0 mm0 mm 50 m
10:42 4.8 °C 4.8 °C 100 %46 km/h (86 km/h) 0 mm0 mm 40 m
10:36 4.8 °C 4.8 °C 100 %44 km/h (76 km/h) 0 mm0 mm 40 m
10:30 4.7 °C 4.7 °C 100 %43 km/h (61 km/h) 0 mm0 mm 50 m
10:24 4.7 °C 4.7 °C 100 %47 km/h (78 km/h) 0 mm0 mm 40 m
10:18 4.7 °C 4.7 °C 100 %45 km/h (78 km/h) 0 mm0 mm 40 m
10:12 4.8 °C 4.8 °C 100 %45 km/h (65 km/h) 0 mm0 mm 40 m
10:06 4.7 °C 4.7 °C 100 %49 km/h (80 km/h) 0 mm0 mm 40 m
10:00 4.8 °C 4.8 °C 100 %48 km/h (87 km/h) 0 mm0 mm 30 m
09:54 4.8 °C 4.8 °C 100 %41 km/h (66 km/h) 0 mm0 mm 30 m
09:48 4.8 °C 4.8 °C 100 %46 km/h (76 km/h) 0 mm0 mm 40 m
09:42 4.7 °C 4.7 °C 100 %40 km/h (69 km/h) 0 mm0 mm 40 m
09:36 4.7 °C 4.7 °C 100 %41 km/h (68 km/h) 0 mm0 mm 40 m
09:30 4.6 °C 4.6 °C 100 %48 km/h (70 km/h) 0 mm0 mm 40 m
09:24 4.5 °C 4.5 °C 100 %50 km/h (81 km/h) 0 mm0 mm 50 m
09:18 4.5 °C 4.5 °C 100 %50 km/h (80 km/h) 0 mm0 mm 50 m
09:12 4.6 °C 4.6 °C 100 %49 km/h (76 km/h) 0 mm0 mm 40 m
09:06 4.5 °C 4.5 °C 100 %50 km/h (76 km/h) 0 mm0 mm 50 m
09:00 4.6 °C 4.6 °C 100 %51 km/h (78 km/h) 0 mm0.2 mm 50 m
08:54 4.6 °C 4.6 °C 100 %50 km/h (80 km/h) 0 mm0 mm 50 m
08:48 4.8 °C 4.8 °C 100 %47 km/h (80 km/h) 0 mm0 mm 50 m
08:42 4.9 °C 4.9 °C 100 %48 km/h (76 km/h) 0 mm0 mm 50 m
08:36 5.1 °C 5.1 °C 100 %50 km/h (80 km/h) 0.2 mm0 mm 40 m
08:30 5.1 °C 5.1 °C 100 %46 km/h (80 km/h) 0 mm0 mm 30 m
08:24 4.9 °C 4.9 °C 100 %50 km/h (86 km/h) 0 mm0 mm 40 m
08:18 4.8 °C 4.8 °C 100 %54 km/h (86 km/h) 0 mm0 mm 40 m
08:12 4.9 °C 4.9 °C 100 %52 km/h (78 km/h) 0 mm0 mm 40 m
08:06 4.8 °C 4.8 °C 100 %50 km/h (77 km/h) 0 mm0 mm 40 m
08:00 4.7 °C 4.7 °C 100 %54 km/h (84 km/h) 0 mm0 mm 50 m
07:54 4.7 °C 4.7 °C 100 %53 km/h (76 km/h) 0 mm0 mm 40 m
07:48 4.7 °C 4.7 °C 100 %52 km/h (77 km/h) 0 mm0 mm 40 m
07:42 4.6 °C 4.6 °C 100 %54 km/h (77 km/h) 0 mm0 mm 50 m
07:36 4.6 °C 4.6 °C 100 %53 km/h (81 km/h) 0 mm0 mm 40 m
07:30 4.8 °C 4.8 °C 100 %50 km/h (81 km/h) 0 mm0 mm 40 m
07:24 4.8 °C 4.8 °C 100 %48 km/h (76 km/h) 0 mm0 mm 40 m
07:18 4.8 °C 4.8 °C 100 %50 km/h (76 km/h) 0 mm0 mm 40 m
07:12 4.8 °C 4.8 °C 100 %49 km/h (73 km/h) 0 mm0 mm 40 m
07:06 4.7 °C 4.7 °C 100 %51 km/h (80 km/h) 0 mm0 mm 40 m
07:00 4.7 °C 4.7 °C 100 %51 km/h (80 km/h) 0 mm0 mm 40 m
06:54 4.8 °C 4.8 °C 100 %46 km/h (71 km/h) 0 mm0 mm 40 m
06:48 4.8 °C 4.8 °C 100 %45 km/h (78 km/h) 0 mm0 mm 40 m
06:42 4.8 °C 4.8 °C 100 %42 km/h (69 km/h) 0 mm0 mm 40 m
06:36 4.7 °C 4.7 °C 100 %46 km/h (77 km/h) 0 mm0 mm 40 m
06:30 4.6 °C 4.6 °C 100 %46 km/h (77 km/h) 0 mm0 mm 40 m
06:24 4.6 °C 4.6 °C 100 %45 km/h (77 km/h) 0 mm0 mm 40 m
06:18 4.6 °C 4.6 °C 100 %46 km/h (72 km/h) 0 mm0 mm 40 m
06:12 4.6 °C 4.6 °C 100 %47 km/h (73 km/h) 0 mm0 mm 40 m
06:06 4.5 °C 4.5 °C 100 %49 km/h (73 km/h) 0 mm0 mm 50 m
06:00 4.4 °C 4.4 °C 100 %48 km/h (72 km/h) 0 mm0 mm 50 m
05:54 4.4 °C 4.4 °C 100 %45 km/h (67 km/h) 0 mm0 mm 40 m
05:48 4.3 °C 4.3 °C 100 %42 km/h (60 km/h) 0 mm0 mm 40 m
05:42 4.2 °C 4.2 °C 100 %45 km/h (71 km/h) 0 mm0 mm 50 m
05:36 4.2 °C 4.2 °C 100 %44 km/h (62 km/h) 0 mm0 mm 50 m
05:30 4.3 °C 4.3 °C 100 %42 km/h (59 km/h) 0 mm0 mm 50 m
05:24 4.2 °C 4.2 °C 100 %46 km/h (67 km/h) 0 mm0 mm 50 m
05:18 4.1 °C 4.1 °C 100 %51 km/h (82 km/h) 0 mm0 mm 60 m
05:12 4.1 °C 4.1 °C 100 %51 km/h (80 km/h) 0 mm0 mm 70 m
05:06 4.1 °C 4.1 °C 100 %50 km/h (80 km/h) 0 mm0 mm 70 m
05:00 4.1 °C 4.1 °C 100 %48 km/h (79 km/h) 0 mm0 mm 70 m
04:54 4.2 °C 4.2 °C 100 %43 km/h (64 km/h) 0 mm0 mm 60 m
04:48 4.3 °C 4.3 °C 100 %41 km/h (59 km/h) 0 mm0 mm 50 m
04:42 4.3 °C 4.3 °C 100 %42 km/h (66 km/h) 0 mm0 mm 50 m
04:36 4.4 °C 4.4 °C 100 %40 km/h (58 km/h) 0 mm0 mm 40 m
04:30 4.3 °C 4.3 °C 100 %42 km/h (66 km/h) 0 mm0 mm 50 m
04:24 4.3 °C 4.3 °C 100 %42 km/h (66 km/h) 0 mm0 mm 50 m
04:18 4.3 °C 4.3 °C 100 %39 km/h (65 km/h) 0 mm0 mm 50 m
04:12 4.2 °C 4.2 °C 100 %37 km/h (62 km/h) 0 mm0 mm 60 m
04:06 4.3 °C 4.3 °C 100 %39 km/h (67 km/h) 0 mm0 mm 50 m
04:00 4.4 °C 4.4 °C 100 %40 km/h (72 km/h) 0 mm0 mm 40 m
03:54 4.4 °C 4.4 °C 100 %43 km/h (75 km/h) 0 mm0 mm 40 m
03:48 4.4 °C 4.4 °C 100 %39 km/h (66 km/h) 0 mm0 mm 40 m
03:42 4.4 °C 4.4 °C 100 %37 km/h (63 km/h) 0 mm0 mm 40 m
03:36 4.3 °C 4.3 °C 100 %41 km/h (72 km/h) 0 mm0 mm 40 m
03:30 4.3 °C 4.3 °C 100 %43 km/h (68 km/h) 0 mm0 mm 40 m
03:24 4.4 °C 4.4 °C 100 %41 km/h (59 km/h) 0 mm0 mm 40 m
03:18 4.3 °C 4.3 °C 100 %43 km/h (60 km/h) 0 mm0 mm 40 m
03:12 4.3 °C 4.3 °C 100 %45 km/h (68 km/h) 0 mm0 mm 40 m
03:06 4.2 °C 4.2 °C 100 %44 km/h (68 km/h) 0 mm0 mm 40 m
03:00 4.1 °C 4.1 °C 100 %44 km/h (64 km/h) 0 mm0 mm 40 m
02:54 4.1 °C 4.1 °C 100 %44 km/h (64 km/h) 0 mm0 mm 40 m
02:48 4.1 °C 4 °C 99 %45 km/h (62 km/h) 0 mm0 mm 50 m
02:42 4 °C 3.9 °C 99 %47 km/h (69 km/h) 0 mm0 mm 60 m
02:36 4 °C 3.7 °C 98 %49 km/h (74 km/h) 0 mm0 mm 80 m
02:30 3.9 °C 3.6 °C 98 %52 km/h (73 km/h) 0 mm0 mm 150 m
02:24 3.9 °C 3.5 °C 97 %53 km/h (81 km/h) 0 mm0 mm 130 m
02:18 4 °C 3.6 °C 97 %50 km/h (81 km/h) 0 mm0 mm 160 m
02:12 3.9 °C 3.2 °C 95 %48 km/h (69 km/h) 0 mm0 mm 580 m
02:06 3.9 °C 3.2 °C 95 %44 km/h (69 km/h) 0 mm0 mm 340 m
02:00 3.8 °C 3.5 °C 98 %41 km/h (69 km/h) 0 mm0 mm 110 m
01:54 3.9 °C 3.6 °C 98 %38 km/h (58 km/h) 0 mm0 mm 70 m
01:48 3.9 °C 3.5 °C 97 %39 km/h (56 km/h) 0 mm0 mm 110 m
01:42 3.9 °C 3.2 °C 95 %42 km/h (56 km/h) 0 mm0 mm 220 m
01:36 3.9 °C 2.9 °C 93 %48 km/h (70 km/h) 0 mm0 mm 450 m
01:30 3.9 °C 2.6 °C 91 %50 km/h (76 km/h) 0 mm0 mm 16250 m
01:24 3.7 °C 2.7 °C 93 %49 km/h (71 km/h) 0 mm0 mm 16140 m
01:18 3.7 °C 2.7 °C 93 %48 km/h (70 km/h) 0 mm0 mm 14770 m
01:12 3.7 °C 2.7 °C 93 %47 km/h (65 km/h) 0 mm0 mm 15580 m
01:06 3.7 °C 2.7 °C 93 %47 km/h (61 km/h) 0 mm0 mm 19260 m
01:00 3.8 °C 2.9 °C 94 %47 km/h (67 km/h) 0 mm0 mm 10710 m
00:54 3.9 °C 3.2 °C 95 %45 km/h (74 km/h) 0 mm0 mm 1210 m
00:48 3.9 °C 3.3 °C 96 %45 km/h (74 km/h) 0 mm0 mm 1020 m
00:42 3.9 °C 3.5 °C 97 %46 km/h (70 km/h) 0 mm0 mm 390 m
00:36 3.9 °C 3.8 °C 99 %41 km/h (68 km/h) 0 mm0 mm 130 m
00:30 4 °C 3.7 °C 98 %41 km/h (64 km/h) 0 mm0 mm 150 m
00:24 3.9 °C 3.6 °C 98 %43 km/h (70 km/h) 0 mm0 mm 300 m
00:18 3.8 °C 3.7 °C 99 %41 km/h (58 km/h) 0 mm0 mm 120 m
00:12 3.8 °C 3.5 °C 98 %41 km/h (60 km/h) 0 mm0 mm 100 m
00:06 3.8 °C 3.5 °C 98 %45 km/h (62 km/h) 0 mm0 mm 140 m
00:00 3.7 °C 3.3 °C 97 %48 km/h (69 km/h) 0 mm0 mm 350 m

Données via Météo-France

   Vigilance

   Dernière mise à jour Dimanche à 16:00

Application mobile

iOS

Android / iOS / PC

   Fil d'actualités

  Il y a 47 minutesVoir plus

> Prévisions pour le 04/05 : Ciel généralement couvert en matinée, avec tout de même quelques rares éclaircies. Rapidement vers la fin de matinée, des averses orageuses prendront naissance autour de l'Avesnois. Ces averses pourront se généraliser aux secteurs limitrophes dans l'après-midi (Cambrésis, Valenciennois, ... jusqu'à la métropolle Lilloise et l'Artois) en cours d'après-midi, mais sans certitude. Ces averses orageuses seront très peu mobiles et très localisées: quelques inondations localisées sont possibles sur les secteurs habitués dans ce genre de situation. Compte tenu de la difficulté de la prévision et du caractère très localisé de ces averses, on pourrait passer à côté... ou non. Baisse des températures au global sur la région, avec pas plus de 17°C pour les maximales ! En matinée, températures comprises entre 11°C et 12°C. Vent faible. Dans l'après-midi, températures comprises entre 12°C et 17°C. Vent faible. Pensez à regarder les cartes pour voir le temps prévu! Bonne soirée ! :) Hugo. ---- 👉 Retrouvez les prévisions pour votre ville sur https://meteo-npdc.fr/previsions/ma-ville/

  Il y a 3 heuresVoir plus

⚡️ Alors que nos averses orageuses quittent la région par la Belgique, d'autres se situent encore entre Cambrésis/Avesnois/Valenciennois... et d'autres arrivent encore par la Picardie ! Il y a encore de la réserve derrière, ce n'est donc pas encore totalement terminé. Fin prévue en soirée :) Hugo

  Il y a 4 heuresVoir plus

⚡️ L'essentiel de l'activité orageuse se situe entre Arras et Lille maintenant, où les pluies sont également les plus intenses. Ailleurs, pluies modérées et ponctuellment fortes... ou rien du tout ! 😁 Cet orage va remonter sur la métropole Lilloise avant de nous quitter vers la Belgique très bientôt :)

  Il y a 5 heuresVoir plus

Comme je vous le disais, pas grand chose à attendre cet après-midi: au moins nous avons un peu d'eau, pour le plus grand bien de nos jardins ! Il faudra attendre la soirée pour que ces averses ne cessent. En attendant, profitez-en pour faire la danse de la pluie 😁 Hugo

  Il y a 7 heuresVoir plus

⚡️ Retour des orages cet après-midi, notamment autour de Lillers. Beaucoup de réserve également arrivant sur la Somme, ce n'est donc que le début des festivités pour la journée ! Pas grand chose à attendre néanmoins en dehors de coups de tonnerre / fortes pluies. Le Boulonnais et le Calaisis devraient rester en marge cet après-midi, même si une averse n'est pas totalement à exclure ;) Hugo